AFR6784 LFPG-YBBN
Flight info
| Callsign | AFR6784 |
|---|---|
| Flight time | N/A |
| Altitude | 29000 |
| Route | PILUL DCT CACHI DCT LUSAR Z64 MOLUS DCT PUNSA DCT EVRIP/N0490F300 DCT RIFEN/N0489F290 DCT MAGAM DCT VEBAL DCT TONDO DCT ROMUX DCT ADINA/K0904F310 L851 KUGOS/N0468F270 L851 KARDE N644 ROLIN/N0485F310 N644 LAGAS M747 SUBUT T923 ERLEV M11 RODAR A909 KEKAL/N0487F330 A909 NINOP B475 DAVET P173 TAPIS L509 SULOM A466 ASARI L509 GGC R460 CEA L507 ESDOT/N0491F350 L507 BKK N506 ELMOP R468 SAPEN/K0898F350 R468 TSH M768 MOXON/N0485F350 M768 LAGOT/N0483F370 M768 AVMAN/N0477F390 M768 DN J251 TN A464 UNVAT V327 IGUPI Y340 LAMUG Y177 SMOKA |
| Aircraft | B77L/H-SABDE1E2E3FGHIJ2J3J4J5M1RTUWXY/LB1D1 |
Departure
| Time | 2026-05-09 04:33 |
|---|---|
| Airport | Charles de Gaulle International Airport (LFPG) |
Arrival
| Time | N/A |
|---|---|
| Airport | Brisbane International Airport (YBBN) |
| Time | Latitude | Longitude | Altitude | Speed | Heading |
|---|---|---|---|---|---|
| 2026-05-09 03:44 | 49.00011 | 2.54298 | 359 ft | 0 kts | 355° |
| 2026-05-09 04:22 | 49.00009 | 2.54298 | 359 ft | 2 kts | 355° |
| 2026-05-09 04:22 | 48.99989 | 2.54301 | 361 ft | 3 kts | 354° |
| 2026-05-09 04:22 | 48.99968 | 2.54304 | 359 ft | 3 kts | 355° |
| 2026-05-09 04:23 | 48.99948 | 2.54306 | 362 ft | 3 kts | 359° |
| 2026-05-09 04:23 | 48.99928 | 2.54306 | 365 ft | 3 kts | 3° |
| 2026-05-09 04:23 | 48.99909 | 2.54304 | 359 ft | 1 kts | 3° |
| 2026-05-09 04:23 | 48.99908 | 2.54304 | 359 ft | 0 kts | 3° |
| 2026-05-09 04:25 | 48.99910 | 2.54304 | 359 ft | 2 kts | 5° |
| 2026-05-09 04:25 | 48.99926 | 2.54325 | 366 ft | 3 kts | 64° |
| 2026-05-09 04:25 | 48.99927 | 2.54359 | 364 ft | 0 kts | 87° |
| 2026-05-09 04:27 | 48.99927 | 2.54364 | 364 ft | 2 kts | 87° |
| 2026-05-09 04:28 | 48.99929 | 2.54418 | 365 ft | 8 kts | 86° |
| 2026-05-09 04:28 | 48.99933 | 2.54512 | 359 ft | 9 kts | 85° |
| 2026-05-09 04:28 | 48.99939 | 2.54608 | 359 ft | 9 kts | 84° |
| 2026-05-09 04:28 | 48.99944 | 2.54704 | 365 ft | 9 kts | 85° |
| 2026-05-09 04:29 | 48.99933 | 2.54795 | 360 ft | 9 kts | 128° |
| 2026-05-09 04:29 | 48.99873 | 2.54820 | 365 ft | 9 kts | 175° |
| 2026-05-09 04:29 | 48.99809 | 2.54828 | 359 ft | 9 kts | 175° |
| 2026-05-09 04:29 | 48.99752 | 2.54867 | 363 ft | 9 kts | 136° |
| 2026-05-09 04:30 | 48.99720 | 2.54943 | 363 ft | 7 kts | 117° |
| 2026-05-09 04:30 | 48.99699 | 2.55006 | 367 ft | 7 kts | 116° |
| 2026-05-09 04:30 | 48.99684 | 2.55053 | 363 ft | 4 kts | 115° |
| 2026-05-09 04:30 | 48.99671 | 2.55095 | 360 ft | 4 kts | 115° |
| 2026-05-09 04:31 | 48.99658 | 2.55137 | 365 ft | 4 kts | 115° |
| 2026-05-09 04:31 | 48.99645 | 2.55179 | 365 ft | 4 kts | 115° |
| 2026-05-09 04:31 | 48.99632 | 2.55222 | 367 ft | 5 kts | 114° |
| 2026-05-09 04:31 | 48.99610 | 2.55296 | 361 ft | 10 kts | 114° |
| 2026-05-09 04:32 | 48.99582 | 2.55401 | 364 ft | 14 kts | 104° |
| 2026-05-09 04:32 | 48.99590 | 2.55668 | 362 ft | 44 kts | 86° |
| 2026-05-09 04:32 | 48.99636 | 2.56531 | 362 ft | 118 kts | 85° |
| 2026-05-09 04:32 | 48.99726 | 2.58120 | 368 ft | 180 kts | 84° |
| 2026-05-09 04:33 | 48.99832 | 2.60071 | 862 ft | 186 kts | 85° |
| 2026-05-09 04:33 | 48.99918 | 2.62084 | 1457 ft | 191 kts | 86° |
| 2026-05-09 04:33 | 49.00024 | 2.64085 | 2143 ft | 188 kts | 86° |
| 2026-05-09 04:33 | 49.00132 | 2.66047 | 2714 ft | 188 kts | 86° |
| 2026-05-09 04:34 | 49.00251 | 2.68063 | 3063 ft | 195 kts | 86° |
| 2026-05-09 04:34 | 49.00377 | 2.70140 | 3413 ft | 198 kts | 86° |
| 2026-05-09 04:34 | 49.00498 | 2.72224 | 3799 ft | 198 kts | 87° |
| 2026-05-09 04:34 | 49.00610 | 2.74339 | 4119 ft | 204 kts | 86° |
| 2026-05-09 04:35 | 49.00728 | 2.76560 | 4301 ft | 218 kts | 87° |
| 2026-05-09 04:35 | 49.00695 | 2.78927 | 4480 ft | 230 kts | 103° |
| 2026-05-09 04:35 | 49.00366 | 2.81358 | 4856 ft | 240 kts | 102° |
| 2026-05-09 04:35 | 49.00071 | 2.83965 | 5080 ft | 259 kts | 100° |
| 2026-05-09 04:36 | 48.99797 | 2.86530 | 5430 ft | 270 kts | 100° |
| 2026-05-09 04:36 | 48.99499 | 2.89372 | 6113 ft | 275 kts | 101° |
| 2026-05-09 04:36 | 48.99186 | 2.92315 | 6594 ft | 286 kts | 101° |
| 2026-05-09 04:36 | 48.98852 | 2.95327 | 7240 ft | 290 kts | 101° |
| 2026-05-09 04:37 | 48.98273 | 2.98251 | 7810 ft | 289 kts | 122° |
| 2026-05-09 04:37 | 48.96912 | 3.00482 | 8270 ft | 292 kts | 153° |
| 2026-05-09 04:37 | 48.95014 | 3.01340 | 8830 ft | 290 kts | 179° |
| 2026-05-09 04:37 | 48.93001 | 3.01373 | 9400 ft | 293 kts | 182° |
| 2026-05-09 04:38 | 48.90921 | 3.01376 | 10043 ft | 296 kts | 182° |
| 2026-05-09 04:38 | 48.88866 | 3.01379 | 10495 ft | 307 kts | 182° |
| 2026-05-09 04:38 | 48.86635 | 3.01381 | 10639 ft | 329 kts | 182° |
| 2026-05-09 04:38 | 48.84289 | 3.01303 | 10781 ft | 344 kts | 189° |
| 2026-05-09 04:39 | 48.81931 | 3.00349 | 11015 ft | 357 kts | 202° |
| 2026-05-09 04:39 | 48.79596 | 2.99023 | 11535 ft | 366 kts | 201° |
| 2026-05-09 04:39 | 48.77181 | 2.97694 | 12187 ft | 371 kts | 201° |
| 2026-05-09 04:39 | 48.74738 | 2.96382 | 12928 ft | 375 kts | 201° |
| 2026-05-09 04:40 | 48.72258 | 2.95073 | 13681 ft | 378 kts | 200° |
| 2026-05-09 04:40 | 48.69762 | 2.93771 | 14317 ft | 382 kts | 200° |
| 2026-05-09 04:40 | 48.67263 | 2.92475 | 14928 ft | 386 kts | 200° |
| 2026-05-09 04:40 | 48.64708 | 2.91156 | 15540 ft | 390 kts | 200° |
| 2026-05-09 04:41 | 48.62098 | 2.89811 | 16163 ft | 394 kts | 200° |
| 2026-05-09 04:41 | 48.59491 | 2.88469 | 16759 ft | 398 kts | 200° |
| 2026-05-09 04:41 | 48.57050 | 2.87220 | 17321 ft | 399 kts | 198° |
| 2026-05-09 04:41 | 48.54302 | 2.86529 | 17658 ft | 408 kts | 178° |
| 2026-05-09 04:42 | 48.51533 | 2.87530 | 18147 ft | 416 kts | 154° |
| 2026-05-09 04:42 | 48.49191 | 2.90002 | 18708 ft | 417 kts | 139° |
| 2026-05-09 04:42 | 48.46995 | 2.92882 | 19098 ft | 421 kts | 143° |
| 2026-05-09 04:42 | 48.44582 | 2.95338 | 19530 ft | 424 kts | 151° |
| 2026-05-09 04:43 | 48.41966 | 2.97397 | 20121 ft | 425 kts | 155° |
| 2026-05-09 04:43 | 48.39275 | 2.99250 | 20706 ft | 426 kts | 156° |
| 2026-05-09 04:43 | 48.36565 | 3.01079 | 21291 ft | 426 kts | 156° |
| 2026-05-09 04:43 | 48.33888 | 3.03031 | 21726 ft | 432 kts | 151° |
| 2026-05-09 04:44 | 48.31260 | 3.05323 | 22127 ft | 437 kts | 150° |
| 2026-05-09 04:44 | 48.28626 | 3.07650 | 22644 ft | 440 kts | 150° |
| 2026-05-09 04:44 | 48.25974 | 3.09977 | 23193 ft | 442 kts | 150° |
| 2026-05-09 04:44 | 48.23311 | 3.12297 | 23688 ft | 444 kts | 150° |
| 2026-05-09 04:45 | 48.20680 | 3.14578 | 24091 ft | 447 kts | 150° |
| 2026-05-09 04:45 | 48.17988 | 3.16906 | 24496 ft | 449 kts | 150° |
| 2026-05-09 04:45 | 48.15312 | 3.19215 | 25002 ft | 449 kts | 150° |
| 2026-05-09 04:45 | 48.12602 | 3.21551 | 25489 ft | 450 kts | 150° |
| 2026-05-09 04:46 | 48.09879 | 3.23894 | 25895 ft | 453 kts | 150° |
| 2026-05-09 04:46 | 48.07134 | 3.26254 | 26261 ft | 456 kts | 150° |
| 2026-05-09 04:46 | 48.04379 | 3.28620 | 26643 ft | 459 kts | 150° |
| 2026-05-09 04:46 | 48.01595 | 3.31007 | 27051 ft | 461 kts | 150° |
| 2026-05-09 04:47 | 47.98810 | 3.33394 | 27444 ft | 463 kts | 150° |
| 2026-05-09 04:47 | 47.96008 | 3.35792 | 27845 ft | 465 kts | 150° |
| 2026-05-09 04:47 | 47.93203 | 3.38190 | 28295 ft | 465 kts | 150° |
| 2026-05-09 04:47 | 47.90390 | 3.40592 | 28610 ft | 469 kts | 150° |
| 2026-05-09 04:48 | 47.87528 | 3.43033 | 28746 ft | 475 kts | 150° |
| 2026-05-09 04:48 | 47.84654 | 3.45481 | 29066 ft | 478 kts | 150° |
| 2026-05-09 04:48 | 47.81767 | 3.47937 | 29469 ft | 478 kts | 150° |
| 2026-05-09 04:48 | 47.78878 | 3.50390 | 29981 ft | 476 kts | 150° |
| 2026-05-09 04:49 | 47.76012 | 3.52822 | 30438 ft | 473 kts | 150° |
| 2026-05-09 04:49 | 47.73159 | 3.55238 | 30861 ft | 471 kts | 150° |
| 2026-05-09 04:49 | 47.70345 | 3.57620 | 31039 ft | 475 kts | 150° |
| 2026-05-09 04:50 | 47.64595 | 3.62476 | 31010 ft | 473 kts | 150° |
| 2026-05-09 04:50 | 47.58932 | 3.67247 | 31017 ft | 469 kts | 150° |
| 2026-05-09 04:51 | 47.53271 | 3.72004 | 31019 ft | 469 kts | 150° |
| 2026-05-09 04:51 | 47.48552 | 3.75960 | 31021 ft | 468 kts | 150° |
| 2026-05-09 04:52 | 47.42878 | 3.80707 | 31010 ft | 468 kts | 150° |
| 2026-05-09 04:52 | 47.37214 | 3.85433 | 31023 ft | 467 kts | 150° |
| 2026-05-09 04:53 | 47.31548 | 3.90150 | 31024 ft | 467 kts | 150° |
| 2026-05-09 04:53 | 47.25878 | 3.94858 | 31016 ft | 467 kts | 150° |
| 2026-05-09 04:54 | 47.20252 | 3.99519 | 31019 ft | 467 kts | 150° |
| 2026-05-09 04:54 | 47.14585 | 4.04203 | 31021 ft | 466 kts | 150° |
| 2026-05-09 04:55 | 47.09060 | 4.09131 | 30977 ft | 465 kts | 140° |
| 2026-05-09 04:55 | 47.04706 | 4.16097 | 31022 ft | 465 kts | 124° |
| 2026-05-09 04:56 | 47.01580 | 4.24423 | 31031 ft | 467 kts | 118° |
| 2026-05-09 04:56 | 46.98558 | 4.32875 | 31035 ft | 470 kts | 118° |
| 2026-05-09 04:57 | 46.95473 | 4.41351 | 31034 ft | 472 kts | 118° |
| 2026-05-09 04:57 | 46.92357 | 4.49812 | 31038 ft | 473 kts | 119° |
| 2026-05-09 04:58 | 46.89222 | 4.58282 | 31036 ft | 473 kts | 119° |
| 2026-05-09 04:58 | 46.86100 | 4.66695 | 31041 ft | 474 kts | 119° |
| 2026-05-09 04:59 | 46.82948 | 4.75166 | 31042 ft | 475 kts | 119° |
| 2026-05-09 04:59 | 46.79789 | 4.83630 | 31036 ft | 475 kts | 119° |
| 2026-05-09 05:00 | 46.76621 | 4.92094 | 31036 ft | 475 kts | 119° |
| 2026-05-09 05:00 | 46.73445 | 5.00551 | 31049 ft | 475 kts | 119° |
| 2026-05-09 05:01 | 46.70259 | 5.09014 | 31050 ft | 476 kts | 119° |
| 2026-05-09 05:01 | 46.67331 | 5.17591 | 31034 ft | 477 kts | 111° |
| 2026-05-09 05:02 | 46.65468 | 5.26863 | 31049 ft | 477 kts | 102° |
| 2026-05-09 05:02 | 46.64118 | 5.36356 | 31061 ft | 478 kts | 103° |
| 2026-05-09 05:03 | 46.62704 | 5.45823 | 31061 ft | 479 kts | 103° |
| 2026-05-09 05:03 | 46.61239 | 5.55278 | 31073 ft | 480 kts | 103° |
| 2026-05-09 05:04 | 46.59741 | 5.64741 | 31074 ft | 480 kts | 103° |
| 2026-05-09 05:04 | 46.58241 | 5.74217 | 31082 ft | 481 kts | 104° |
| 2026-05-09 05:05 | 46.56742 | 5.83645 | 31101 ft | 481 kts | 104° |
| 2026-05-09 05:05 | 46.55235 | 5.93139 | 31100 ft | 482 kts | 104° |
| 2026-05-09 05:06 | 46.53722 | 6.02638 | 31103 ft | 483 kts | 104° |
| 2026-05-09 05:06 | 46.52198 | 6.12154 | 31094 ft | 484 kts | 104° |
| 2026-05-09 05:07 | 46.50663 | 6.21676 | 31112 ft | 485 kts | 104° |
| 2026-05-09 05:07 | 46.49116 | 6.31219 | 31098 ft | 486 kts | 104° |
| 2026-05-09 05:08 | 46.47559 | 6.40775 | 31110 ft | 487 kts | 104° |
| 2026-05-09 05:08 | 46.46255 | 6.50362 | 31097 ft | 488 kts | 99° |
| 2026-05-09 05:09 | 46.45251 | 6.60117 | 31098 ft | 490 kts | 100° |
| 2026-05-09 05:09 | 46.43914 | 6.69805 | 31084 ft | 489 kts | 108° |
| 2026-05-09 05:10 | 46.41530 | 6.79034 | 31085 ft | 489 kts | 113° |
| 2026-05-09 05:10 | 46.39036 | 6.88204 | 31082 ft | 490 kts | 113° |
| 2026-05-09 05:11 | 46.36563 | 6.97424 | 31110 ft | 492 kts | 112° |
| 2026-05-09 05:11 | 46.34088 | 7.06688 | 31112 ft | 494 kts | 113° |
| 2026-05-09 05:12 | 46.31617 | 7.15912 | 31128 ft | 495 kts | 113° |
| 2026-05-09 05:12 | 46.29115 | 7.25210 | 31123 ft | 497 kts | 113° |
| 2026-05-09 05:13 | 46.26595 | 7.34534 | 31135 ft | 498 kts | 113° |
| 2026-05-09 05:13 | 46.24059 | 7.43878 | 31130 ft | 500 kts | 113° |
| 2026-05-09 05:14 | 46.21512 | 7.53229 | 31109 ft | 500 kts | 113° |
| 2026-05-09 05:14 | 46.18957 | 7.62573 | 31116 ft | 499 kts | 113° |
| 2026-05-09 05:15 | 46.16398 | 7.71895 | 31100 ft | 499 kts | 114° |
| 2026-05-09 05:15 | 46.13835 | 7.81193 | 31114 ft | 498 kts | 114° |
| 2026-05-09 05:16 | 46.11265 | 7.90486 | 31092 ft | 498 kts | 114° |
| 2026-05-09 05:16 | 46.08717 | 7.99690 | 31103 ft | 498 kts | 112° |
| 2026-05-09 05:17 | 46.06836 | 8.09351 | 31111 ft | 503 kts | 103° |
| 2026-05-09 05:17 | 46.05491 | 8.19282 | 31127 ft | 506 kts | 103° |
| 2026-05-09 05:18 | 46.04112 | 8.29242 | 31121 ft | 509 kts | 103° |
| 2026-05-09 05:18 | 46.02687 | 8.39235 | 31116 ft | 510 kts | 103° |
| 2026-05-09 05:19 | 46.01247 | 8.49181 | 31111 ft | 510 kts | 103° |
| 2026-05-09 05:19 | 45.99798 | 8.59129 | 31132 ft | 508 kts | 103° |
| 2026-05-09 05:20 | 45.98343 | 8.69069 | 31120 ft | 507 kts | 103° |
| 2026-05-09 05:20 | 45.96885 | 8.78966 | 31126 ft | 506 kts | 103° |
| 2026-05-09 05:21 | 45.95420 | 8.88849 | 31131 ft | 505 kts | 104° |
| 2026-05-09 05:21 | 45.93945 | 8.98741 | 31129 ft | 506 kts | 104° |
| 2026-05-09 05:22 | 45.92469 | 9.08572 | 31120 ft | 507 kts | 104° |
| 2026-05-09 05:22 | 45.90973 | 9.18477 | 31124 ft | 508 kts | 104° |
| 2026-05-09 05:23 | 45.89464 | 9.28410 | 31097 ft | 509 kts | 104° |
| 2026-05-09 05:23 | 45.87946 | 9.38335 | 31092 ft | 510 kts | 104° |
| 2026-05-09 05:24 | 45.86418 | 9.48279 | 31100 ft | 510 kts | 104° |
| 2026-05-09 05:24 | 45.85346 | 9.58352 | 31085 ft | 512 kts | 94° |
| 2026-05-09 05:25 | 45.85423 | 9.68575 | 31087 ft | 512 kts | 89° |
| 2026-05-09 05:25 | 45.85736 | 9.83882 | 31095 ft | 511 kts | 89° |
| 2026-05-09 05:26 | 45.85893 | 9.94070 | 31106 ft | 511 kts | 90° |
| 2026-05-09 05:26 | 45.86026 | 10.04218 | 31117 ft | 512 kts | 90° |
| 2026-05-09 05:27 | 45.86150 | 10.14441 | 31105 ft | 512 kts | 90° |
| 2026-05-09 05:27 | 45.86267 | 10.24661 | 31132 ft | 512 kts | 90° |
| 2026-05-09 05:28 | 45.86376 | 10.34890 | 31126 ft | 513 kts | 90° |
| 2026-05-09 05:28 | 45.86476 | 10.45142 | 31129 ft | 513 kts | 90° |
| 2026-05-09 05:29 | 45.86566 | 10.55380 | 31125 ft | 513 kts | 90° |
| 2026-05-09 05:29 | 45.86648 | 10.65571 | 31116 ft | 513 kts | 90° |
| 2026-05-09 05:30 | 45.86721 | 10.75811 | 31138 ft | 514 kts | 90° |
| 2026-05-09 05:30 | 45.86782 | 10.86091 | 31133 ft | 515 kts | 90° |
| 2026-05-09 05:31 | 45.86838 | 10.96387 | 31135 ft | 517 kts | 90° |
| 2026-05-09 05:31 | 45.86884 | 11.06734 | 31123 ft | 518 kts | 90° |
| 2026-05-09 05:32 | 45.86919 | 11.17009 | 31134 ft | 518 kts | 90° |
| 2026-05-09 05:32 | 45.86946 | 11.27345 | 31129 ft | 519 kts | 90° |
| 2026-05-09 05:33 | 45.86963 | 11.37702 | 31127 ft | 519 kts | 90° |
| 2026-05-09 05:33 | 45.86971 | 11.48059 | 31106 ft | 519 kts | 90° |
| 2026-05-09 05:34 | 45.86971 | 11.56614 | 31116 ft | 518 kts | 90° |
| 2026-05-09 05:34 | 45.86962 | 11.66951 | 31101 ft | 517 kts | 90° |
| 2026-05-09 05:35 | 45.86944 | 11.77237 | 31109 ft | 517 kts | 91° |
| 2026-05-09 05:35 | 45.86916 | 11.87576 | 31112 ft | 517 kts | 91° |
| 2026-05-09 05:36 | 45.86880 | 11.97548 | 31093 ft | 517 kts | 91° |
| 2026-05-09 05:36 | 45.86834 | 12.07835 | 31084 ft | 518 kts | 91° |
| 2026-05-09 05:37 | 45.86779 | 12.18181 | 31084 ft | 519 kts | 91° |
| 2026-05-09 05:37 | 45.86715 | 12.28544 | 31077 ft | 519 kts | 91° |
| 2026-05-09 05:38 | 45.86640 | 12.38917 | 31073 ft | 520 kts | 91° |
| 2026-05-09 05:38 | 45.86557 | 12.49250 | 31079 ft | 521 kts | 91° |
| 2026-05-09 05:39 | 45.86464 | 12.59663 | 31067 ft | 522 kts | 91° |
| 2026-05-09 05:39 | 45.86361 | 12.70093 | 31084 ft | 523 kts | 91° |
| 2026-05-09 05:40 | 45.86248 | 12.80552 | 31100 ft | 525 kts | 91° |
| 2026-05-09 05:40 | 45.86126 | 12.91051 | 31108 ft | 527 kts | 91° |
| 2026-05-09 05:41 | 45.85993 | 13.01593 | 31075 ft | 528 kts | 91° |
| 2026-05-09 05:41 | 45.85850 | 13.12147 | 31077 ft | 529 kts | 91° |
| 2026-05-09 05:42 | 45.85697 | 13.22709 | 31091 ft | 530 kts | 91° |
| 2026-05-09 05:42 | 45.85536 | 13.33214 | 31104 ft | 530 kts | 91° |
| 2026-05-09 05:43 | 45.85364 | 13.43788 | 31106 ft | 530 kts | 91° |
| 2026-05-09 05:43 | 45.85184 | 13.54353 | 31100 ft | 530 kts | 91° |
| 2026-05-09 05:44 | 45.85386 | 13.64919 | 31105 ft | 529 kts | 84° |
| 2026-05-09 05:44 | 45.86130 | 13.75435 | 31085 ft | 529 kts | 83° |
| 2026-05-09 05:45 | 45.86865 | 13.85943 | 31093 ft | 530 kts | 84° |
| 2026-05-09 05:45 | 45.87558 | 13.96482 | 31083 ft | 530 kts | 84° |
| 2026-05-09 05:46 | 45.88222 | 14.07010 | 31090 ft | 530 kts | 84° |